createdAt,value
2022-12-05T00:01:47.519Z,11.80
2022-12-05T00:04:15.282Z,13.80
2022-12-05T00:06:42.991Z,11.45
2022-12-05T00:09:12.254Z,11.23
2022-12-05T00:11:42.717Z,14.55
2022-12-05T00:14:11.363Z,12.15
2022-12-05T00:16:41.246Z,12.20
2022-12-05T00:19:10.938Z,11.93
2022-12-05T00:21:38.400Z,11.40
2022-12-05T00:24:07.744Z,12.68
2022-12-05T00:26:35.995Z,9.00
2022-12-05T00:29:04.089Z,11.02
2022-12-05T00:31:31.872Z,12.23
2022-12-05T00:34:02.896Z,11.63
2022-12-05T00:36:33.467Z,11.23
2022-12-05T00:39:04.559Z,11.80
2022-12-05T00:41:31.931Z,13.35
2022-12-05T00:44:01.093Z,8.88
2022-12-05T00:46:30.124Z,10.25
2022-12-05T00:48:58.680Z,9.70
2022-12-05T00:51:29.863Z,10.48
2022-12-05T00:54:02.196Z,11.73
2022-12-05T00:56:30.786Z,8.05
2022-12-05T00:59:00.503Z,10.65
2022-12-05T01:01:33.010Z,11.48
2022-12-05T01:04:03.663Z,12.15
2022-12-05T01:06:31.343Z,10.60
2022-12-05T01:08:58.864Z,10.02
2022-12-05T01:11:27.575Z,9.77
2022-12-05T01:13:55.517Z,13.10
2022-12-05T01:16:35.218Z,19.90
2022-12-05T01:19:06.808Z,22.25
2022-12-05T01:21:34.207Z,21.38
2022-12-05T01:24:01.650Z,20.35
2022-12-05T01:26:29.168Z,20.95
2022-12-05T01:28:56.835Z,20.35
2022-12-05T01:31:30.263Z,22.10
2022-12-05T01:34:00.041Z,23.02
2022-12-05T01:36:28.277Z,20.42
2022-12-05T01:38:56.314Z,21.27
2022-12-05T01:41:27.939Z,22.55
2022-12-05T01:44:26.946Z,21.52
2022-12-05T01:46:56.643Z,18.77
2022-12-05T01:49:31.408Z,18.58
2022-12-05T01:52:03.505Z,19.38
2022-12-05T01:57:04.132Z,19.95
2022-12-05T01:59:35.963Z,21.23
2022-12-05T02:02:04.160Z,21.33
2022-12-05T02:04:35.533Z,17.45
2022-12-05T02:07:02.918Z,21.98
2022-12-05T02:09:30.305Z,24.27
2022-12-05T02:12:01.889Z,18.23
2022-12-05T02:14:46.289Z,24.42
2022-12-05T02:17:24.198Z,18.88
2022-12-05T02:20:20.084Z,21.73
2022-12-05T02:23:26.067Z,23.00
2022-12-05T02:26:25.642Z,22.43
2022-12-05T02:29:22.909Z,21.17
2022-12-05T02:32:18.069Z,21.37
2022-12-05T02:35:26.208Z,27.97
2022-12-05T02:38:13.721Z,20.20
2022-12-05T02:41:06.748Z,21.67
2022-12-05T02:44:02.076Z,24.13
2022-12-05T02:46:31.593Z,20.47
2022-12-05T02:49:03.632Z,16.33
2022-12-05T02:51:36.649Z,23.83
2022-12-05T02:57:57.657Z,27.03
2022-12-05T03:00:25.034Z,22.77
2022-12-05T03:02:56.493Z,23.60
2022-12-05T03:05:37.816Z,20.52
2022-12-05T03:08:08.033Z,22.33
2022-12-05T03:10:38.342Z,19.60
2022-12-05T03:13:21.251Z,24.63
2022-12-05T03:15:53.142Z,23.47
2022-12-05T03:18:33.886Z,23.10
2022-12-05T03:21:38.948Z,23.17
2022-12-05T03:24:13.701Z,20.77
2022-12-05T03:27:10.342Z,23.23
2022-12-05T03:29:58.668Z,22.37
2022-12-05T03:32:38.789Z,21.60
2022-12-05T03:35:50.495Z,21.30
2022-12-05T03:38:30.095Z,23.07
2022-12-05T03:41:23.054Z,21.47
2022-12-05T03:44:13.764Z,23.45
2022-12-05T03:46:48.351Z,21.48
2022-12-05T03:49:39.531Z,23.10
2022-12-05T03:52:20.533Z,23.27
2022-12-05T03:54:56.041Z,24.27
2022-12-05T03:57:28.929Z,24.43
2022-12-05T04:00:01.664Z,24.50
2022-12-05T04:02:45.613Z,29.60
2022-12-05T04:05:26.751Z,28.13
2022-12-05T04:08:03.153Z,28.52
2022-12-05T04:10:48.533Z,25.83
2022-12-05T04:13:19.107Z,23.97
2022-12-05T04:16:11.971Z,24.77
2022-12-05T04:18:46.707Z,21.43
2022-12-05T04:21:34.095Z,18.60
2022-12-05T04:24:20.282Z,27.40
2022-12-05T04:26:53.358Z,23.63
2022-12-05T04:29:34.455Z,24.50
2022-12-05T04:32:07.014Z,24.97
2022-12-05T04:34:37.786Z,26.47
2022-12-05T04:37:12.949Z,26.87
2022-12-05T04:39:57.049Z,21.13
2022-12-05T04:42:28.304Z,25.07
2022-12-05T04:45:00.827Z,24.80
2022-12-05T04:47:32.775Z,22.90
2022-12-05T04:50:01.969Z,23.80
2022-12-05T04:52:31.447Z,21.20
2022-12-05T04:55:10.340Z,28.87
2022-12-05T04:58:00.223Z,28.63
2022-12-05T05:00:32.111Z,26.47
2022-12-05T05:03:07.312Z,24.02
2022-12-05T05:05:37.762Z,23.80
2022-12-05T05:08:05.580Z,22.40
2022-12-05T05:10:49.415Z,23.65
2022-12-05T05:13:16.773Z,24.47
2022-12-05T05:15:44.131Z,22.85
2022-12-05T05:18:11.576Z,24.10
2022-12-05T05:20:39.229Z,22.00
2022-12-05T05:23:06.606Z,26.90
2022-12-05T05:25:33.998Z,26.47
2022-12-05T05:28:01.728Z,28.17
2022-12-05T05:30:29.261Z,23.17
2022-12-05T05:32:56.605Z,24.20
2022-12-05T05:35:23.942Z,30.27
2022-12-05T05:37:54.425Z,21.77
2022-12-05T05:40:21.827Z,29.58
2022-12-05T05:42:51.008Z,27.73
2022-12-05T05:45:18.399Z,24.23
2022-12-05T05:47:48.718Z,25.00
2022-12-05T05:50:21.520Z,25.73
2022-12-05T05:52:49.506Z,28.83
2022-12-05T05:55:16.858Z,21.23
2022-12-05T05:57:44.366Z,26.60
2022-12-05T06:00:12.516Z,24.10
2022-12-05T06:02:40.258Z,27.52
2022-12-05T06:05:08.225Z,23.53
2022-12-05T06:07:35.678Z,25.50
2022-12-05T06:10:03.754Z,31.27
2022-12-05T06:12:31.216Z,23.20
2022-12-05T06:14:59.290Z,26.70
2022-12-05T06:17:26.726Z,25.00
2022-12-05T06:19:54.133Z,27.90
2022-12-05T06:22:21.490Z,27.47
2022-12-05T06:24:48.821Z,27.17
2022-12-05T06:27:16.426Z,24.07
2022-12-05T06:29:43.861Z,26.83
2022-12-05T06:32:11.289Z,26.23
2022-12-05T06:34:38.769Z,27.33
2022-12-05T06:37:06.335Z,28.15
2022-12-05T06:39:34.352Z,24.02
2022-12-05T06:42:03.616Z,21.93
2022-12-05T06:44:31.326Z,27.88
2022-12-05T06:46:58.945Z,26.20
2022-12-05T06:49:36.384Z,21.73
2022-12-05T06:52:05.605Z,22.02
2022-12-05T06:54:33.288Z,29.70
2022-12-05T06:57:01.205Z,24.90
2022-12-05T06:59:28.774Z,25.17
2022-12-05T07:01:57.518Z,27.23
2022-12-05T07:04:24.917Z,27.52
2022-12-05T07:06:54.704Z,26.85
2022-12-05T07:09:46.108Z,22.33
2022-12-05T07:12:15.424Z,25.00
2022-12-05T07:14:48.617Z,26.63
2022-12-05T07:17:21.182Z,27.95
2022-12-05T07:19:50.004Z,30.58
2022-12-05T07:22:20.974Z,24.85
2022-12-05T07:24:51.054Z,27.65
2022-12-05T07:27:23.295Z,31.10
2022-12-05T07:29:54.623Z,25.63
2022-12-05T07:32:22.175Z,23.00
2022-12-05T07:34:54.781Z,21.63
2022-12-05T07:37:24.025Z,26.77
2022-12-05T07:39:55.247Z,26.85
2022-12-05T07:42:23.066Z,20.33
2022-12-05T07:44:50.621Z,26.90
2022-12-05T07:47:18.451Z,21.73
2022-12-05T07:49:46.244Z,19.60
2022-12-05T07:52:13.861Z,25.80
2022-12-05T07:54:41.668Z,25.85
2022-12-05T07:57:09.480Z,22.65
2022-12-05T07:59:37.740Z,24.67
2022-12-05T08:02:05.608Z,23.65
2022-12-05T08:04:33.056Z,23.98
2022-12-05T08:07:00.504Z,31.15
2022-12-05T08:09:27.821Z,30.50
2022-12-05T08:11:55.277Z,22.92
2022-12-05T08:14:22.704Z,25.08
2022-12-05T08:16:50.207Z,25.40
2022-12-05T08:19:17.773Z,28.50
2022-12-05T08:21:45.378Z,31.73
2022-12-05T08:24:13.106Z,26.08
2022-12-05T08:26:41.900Z,23.00
2022-12-05T08:29:12.179Z,23.63
2022-12-05T08:31:47.327Z,24.90
2022-12-05T08:34:16.233Z,24.27
2022-12-05T08:36:43.814Z,27.60
2022-12-05T08:39:15.104Z,26.13
2022-12-05T08:41:46.583Z,28.80
2022-12-05T08:44:18.894Z,25.02
2022-12-05T08:46:48.825Z,28.70
2022-12-05T08:49:17.146Z,24.52
2022-12-05T08:51:45.134Z,28.15
2022-12-05T08:54:12.763Z,27.77
2022-12-05T08:56:40.476Z,24.20
2022-12-05T08:59:07.892Z,25.45
2022-12-05T09:01:38.764Z,28.55
2022-12-05T09:04:07.457Z,30.35
2022-12-05T09:06:36.468Z,24.48
2022-12-05T09:09:08.362Z,26.23
2022-12-05T09:11:41.215Z,25.63
2022-12-05T09:14:09.066Z,25.80
2022-12-05T09:16:39.238Z,23.83
2022-12-05T09:19:17.120Z,18.33
2022-12-05T09:21:45.008Z,24.13
2022-12-05T09:24:13.608Z,21.40
2022-12-05T09:26:41.863Z,24.08
2022-12-05T09:29:16.335Z,30.20
2022-12-05T09:31:46.352Z,24.38
2022-12-05T09:34:14.966Z,27.23
2022-12-05T09:36:42.898Z,23.60
2022-12-05T09:39:11.018Z,27.80
2022-12-05T09:42:05.070Z,25.27
2022-12-05T09:45:15.326Z,24.92
2022-12-05T09:48:15.719Z,25.85
2022-12-05T09:50:50.072Z,26.73
2022-12-05T09:53:30.875Z,23.50
2022-12-05T09:56:21.258Z,28.65
2022-12-05T09:58:53.732Z,28.10
2022-12-05T10:02:02.311Z,26.27
2022-12-05T10:05:00.357Z,23.67
2022-12-05T10:07:41.218Z,21.52
2022-12-05T10:10:49.023Z,24.80
2022-12-05T10:13:33.298Z,27.55
2022-12-05T10:16:13.719Z,25.75
2022-12-05T10:18:47.123Z,23.15
2022-12-05T10:21:26.575Z,24.10
2022-12-05T10:24:05.126Z,21.50
2022-12-05T10:26:59.611Z,26.63
2022-12-05T10:30:00.021Z,20.77
2022-12-05T10:32:37.592Z,26.23
2022-12-05T10:35:15.437Z,23.00
2022-12-05T10:37:55.838Z,29.30
2022-12-05T10:40:26.399Z,27.30
2022-12-05T10:42:54.119Z,22.67
2022-12-05T10:45:23.869Z,23.80
2022-12-05T10:47:56.102Z,27.48
2022-12-05T10:50:34.066Z,25.77
2022-12-05T10:53:04.169Z,23.55
2022-12-05T10:55:41.221Z,25.13
2022-12-05T10:58:18.006Z,23.20
2022-12-05T11:00:49.005Z,25.67
2022-12-05T11:03:30.670Z,19.40
2022-12-05T11:06:02.274Z,20.58
2022-12-05T11:09:03.232Z,18.75
2022-12-05T11:11:24.279Z,24.95
2022-12-05T11:13:56.954Z,21.27
2022-12-05T11:16:35.973Z,19.63
2022-12-05T11:19:42.217Z,19.70
2022-12-05T11:22:17.207Z,18.95
2022-12-05T11:24:44.628Z,19.77
2022-12-05T11:27:32.262Z,17.30
2022-12-05T11:30:13.730Z,15.57
2022-12-05T11:32:41.148Z,22.23
2022-12-05T11:35:28.861Z,18.08
2022-12-05T11:38:03.007Z,15.20
2022-12-05T11:41:10.278Z,12.02
2022-12-05T11:43:46.120Z,13.25
2022-12-05T11:46:37.746Z,10.50
2022-12-05T11:49:47.184Z,10.43
2022-12-05T11:52:54.607Z,8.98
2022-12-05T11:55:33.835Z,10.40
2022-12-05T11:58:52.349Z,11.43
2022-12-05T12:01:56.156Z,9.43
2022-12-05T12:04:51.805Z,11.90
2022-12-05T12:07:38.317Z,8.73
2022-12-05T12:10:51.250Z,9.27
2022-12-05T12:13:55.380Z,5.70
2022-12-05T12:17:07.862Z,5.32
2022-12-05T12:20:30.042Z,6.32
2022-12-05T12:35:16.826Z,5.28
2022-12-05T12:38:26.678Z,6.97
2022-12-05T12:40:58.313Z,4.57
2022-12-05T12:44:02.283Z,6.35
2022-12-05T12:46:59.425Z,7.82
2022-12-05T12:50:17.167Z,5.75
2022-12-05T12:53:23.487Z,5.18
2022-12-05T12:56:28.618Z,6.53
2022-12-05T13:02:47.897Z,5.57
2022-12-05T13:05:34.615Z,4.53
2022-12-05T13:08:07.427Z,5.65
2022-12-05T13:10:42.754Z,4.20
2022-12-05T13:13:19.375Z,5.75
2022-12-05T13:16:02.036Z,4.82
2022-12-05T13:18:30.364Z,5.07
2022-12-05T13:21:03.536Z,7.13
2022-12-05T13:23:40.994Z,6.20
2022-12-05T13:26:11.074Z,4.32
2022-12-05T13:28:59.582Z,8.82
2022-12-05T13:34:52.261Z,8.75
2022-12-05T13:37:46.971Z,5.55
2022-12-05T13:40:51.735Z,4.97
2022-12-05T13:43:22.766Z,4.18
2022-12-05T13:46:12.004Z,5.28
2022-12-05T13:48:45.157Z,5.10
2022-12-05T13:51:21.427Z,5.38
2022-12-05T13:53:58.265Z,3.83
2022-12-05T13:56:45.836Z,4.28
2022-12-05T13:59:13.284Z,3.70
2022-12-05T14:01:55.390Z,4.10
2022-12-05T14:04:51.108Z,8.20
2022-12-05T14:08:03.588Z,4.68
2022-12-05T14:11:11.927Z,5.35
2022-12-05T14:13:42.132Z,6.32
2022-12-05T14:16:24.576Z,6.65
2022-12-05T14:19:50.587Z,4.82
2022-12-05T14:22:47.603Z,6.38
2022-12-05T14:25:57.689Z,6.15
2022-12-05T14:28:47.968Z,6.30
2022-12-05T14:31:34.372Z,9.77
2022-12-05T14:34:25.283Z,6.35
2022-12-05T14:40:02.308Z,7.40
2022-12-05T14:42:43.137Z,7.22
2022-12-05T14:48:47.556Z,6.13
2022-12-05T14:57:21.814Z,6.45
2022-12-05T15:00:00.477Z,6.43
2022-12-05T15:02:36.091Z,7.95
2022-12-05T15:05:23.730Z,5.95
2022-12-05T15:07:52.028Z,6.05
2022-12-05T15:10:50.384Z,6.07
2022-12-05T15:13:21.246Z,8.32
2022-12-05T15:16:19.803Z,9.05
2022-12-05T15:18:50.686Z,6.15
2022-12-05T15:21:44.534Z,7.78
2022-12-05T15:24:18.978Z,9.85
2022-12-05T15:26:58.596Z,9.93
2022-12-05T15:29:29.228Z,8.77
2022-12-05T15:32:19.019Z,7.22
2022-12-05T15:35:00.203Z,6.85
2022-12-05T15:37:35.306Z,7.03
2022-12-05T15:40:14.245Z,7.40
2022-12-05T15:42:57.980Z,7.13
2022-12-05T15:45:30.727Z,5.28
2022-12-05T15:48:12.764Z,6.60
2022-12-05T15:50:43.403Z,10.50
2022-12-05T15:53:32.150Z,9.27
2022-12-05T15:56:09.628Z,8.07
2022-12-05T15:58:43.494Z,8.77
2022-12-05T16:01:22.886Z,7.40
2022-12-05T16:04:11.774Z,7.97
2022-12-05T16:06:49.734Z,7.38
2022-12-05T16:09:22.162Z,9.95
2022-12-05T16:12:16.939Z,7.15
2022-12-05T16:15:01.370Z,10.38
2022-12-05T16:17:41.083Z,6.38
2022-12-05T16:20:30.701Z,11.32
2022-12-05T16:23:05.186Z,8.20
2022-12-05T16:25:37.146Z,5.50
2022-12-05T16:28:33.654Z,7.65
2022-12-05T16:31:03.433Z,7.10
2022-12-05T16:33:31.917Z,5.75
2022-12-05T16:36:13.230Z,6.30
2022-12-05T16:38:45.340Z,7.10
2022-12-05T16:41:16.253Z,6.30
2022-12-05T16:43:45.977Z,6.65
2022-12-05T16:46:43.307Z,6.07
2022-12-05T16:49:34.583Z,5.65
2022-12-05T16:52:14.715Z,12.60
2022-12-05T16:54:46.206Z,7.13
2022-12-05T16:57:15.596Z,10.45
2022-12-05T16:59:44.160Z,13.90
2022-12-05T17:02:17.502Z,5.93
2022-12-05T17:04:47.037Z,5.90
2022-12-05T17:07:14.537Z,8.30
2022-12-05T17:09:42.052Z,7.13
2022-12-05T17:12:20.714Z,5.95
2022-12-05T17:14:48.425Z,6.57
2022-12-05T17:17:19.168Z,7.63
2022-12-05T17:19:46.708Z,7.95
2022-12-05T17:22:15.924Z,9.02
2022-12-05T17:24:43.607Z,7.32
2022-12-05T17:27:14.387Z,6.40
2022-12-05T17:29:41.911Z,7.45
2022-12-05T17:32:10.702Z,11.02
2022-12-05T17:34:38.016Z,15.38
2022-12-05T17:37:05.559Z,14.75
2022-12-05T17:39:32.895Z,6.43
2022-12-05T17:42:00.389Z,6.13
2022-12-05T17:44:27.963Z,9.18
2022-12-05T17:46:55.712Z,8.23
2022-12-05T17:49:23.270Z,7.68
2022-12-05T17:52:20.470Z,6.53
2022-12-05T17:54:41.222Z,8.57
2022-12-05T17:57:08.646Z,5.93
2022-12-05T17:59:36.054Z,7.63
2022-12-05T18:02:03.528Z,5.93
2022-12-05T18:04:30.920Z,6.75
2022-12-05T18:06:58.397Z,5.13
2022-12-05T18:09:25.825Z,6.47
2022-12-05T18:11:53.201Z,8.93
2022-12-05T18:14:20.530Z,4.50
2022-12-05T18:16:48.064Z,5.82
2022-12-05T18:19:15.549Z,4.25
2022-12-05T18:21:43.119Z,12.50
2022-12-05T18:24:10.892Z,6.13
2022-12-05T18:26:38.781Z,5.40
2022-12-05T18:29:06.117Z,5.45
2022-12-05T18:31:33.735Z,8.15
2022-12-05T18:34:01.141Z,7.88
2022-12-05T18:36:28.726Z,6.03
2022-12-05T18:38:57.823Z,5.72
2022-12-05T18:41:29.125Z,6.65
2022-12-05T18:43:56.609Z,4.55
2022-12-05T18:46:24.786Z,5.07
2022-12-05T18:48:52.292Z,4.63
2022-12-05T18:51:24.321Z,6.82
2022-12-05T18:53:53.617Z,4.07
2022-12-05T18:56:25.142Z,5.13
2022-12-05T18:58:55.306Z,7.35
2022-12-05T19:01:23.486Z,6.40
2022-12-05T19:03:51.136Z,4.28
2022-12-05T19:06:23.906Z,6.18
2022-12-05T19:08:55.445Z,6.53
2022-12-05T19:11:23.780Z,5.85
2022-12-05T19:13:57.599Z,6.38
2022-12-05T19:16:26.474Z,4.15
2022-12-05T19:18:56.067Z,6.65
2022-12-05T19:21:24.806Z,4.80
2022-12-05T19:23:53.082Z,5.53
2022-12-05T19:26:21.316Z,5.47
2022-12-05T19:28:49.316Z,5.25
2022-12-05T19:31:20.525Z,7.80
2022-12-05T19:33:54.724Z,7.95
2022-12-05T19:36:31.701Z,5.03
2022-12-05T19:38:59.749Z,5.68
2022-12-05T19:41:30.450Z,5.03
2022-12-05T19:44:01.800Z,6.63
2022-12-05T19:46:31.054Z,7.68
2022-12-05T19:49:04.107Z,7.50
2022-12-05T19:51:33.113Z,9.07
2022-12-05T19:54:02.476Z,5.90
2022-12-05T19:56:31.502Z,5.65
2022-12-05T19:58:59.730Z,5.65
2022-12-05T20:01:30.652Z,6.57
2022-12-05T20:04:00.524Z,3.17
2022-12-05T20:06:35.063Z,5.32
2022-12-05T20:09:03.391Z,8.43
2022-12-05T20:11:31.567Z,6.65
2022-12-05T20:14:00.811Z,6.88
2022-12-05T20:16:29.317Z,7.18
2022-12-05T20:18:59.473Z,9.15
2022-12-05T20:21:30.479Z,19.52
2022-12-05T20:24:00.880Z,11.52
2022-12-05T20:26:30.946Z,19.65
2022-12-05T20:28:59.410Z,12.55
2022-12-05T20:31:32.757Z,6.72
2022-12-05T20:34:00.399Z,5.35
2022-12-05T20:36:32.365Z,4.90
2022-12-05T20:39:06.542Z,8.48
2022-12-05T20:41:34.529Z,7.35
2022-12-05T20:44:05.008Z,7.40
2022-12-05T20:46:32.937Z,10.02
2022-12-05T20:49:00.513Z,7.90
2022-12-05T20:51:32.978Z,14.82
2022-12-05T20:54:02.283Z,22.30
2022-12-05T20:56:32.288Z,27.35
2022-12-05T20:59:02.210Z,20.63
2022-12-05T21:01:31.843Z,12.25
2022-12-05T21:03:59.989Z,11.10
2022-12-05T21:06:40.576Z,11.20
2022-12-05T21:09:18.440Z,8.90
2022-12-05T21:11:45.903Z,9.98
2022-12-05T21:14:13.404Z,7.47
2022-12-05T21:16:41.086Z,7.63
2022-12-05T21:19:08.931Z,5.90
2022-12-05T21:21:36.477Z,7.37
2022-12-05T21:24:05.336Z,6.73
2022-12-05T21:26:35.113Z,4.43
2022-12-05T21:29:03.864Z,4.67
2022-12-05T21:31:37.762Z,5.40
2022-12-05T21:34:09.096Z,4.80
2022-12-05T21:36:37.580Z,4.72
2022-12-05T21:39:08.871Z,3.70
2022-12-05T21:41:36.283Z,3.17
2022-12-05T21:44:04.173Z,3.47
2022-12-05T21:46:31.970Z,2.97
2022-12-05T21:48:59.582Z,4.37
2022-12-05T21:51:27.046Z,3.43
2022-12-05T21:53:54.593Z,5.57
2022-12-05T21:56:23.601Z,4.17
2022-12-05T21:58:51.602Z,2.60
2022-12-05T22:01:21.874Z,3.77
2022-12-05T22:03:52.815Z,4.37
2022-12-05T22:06:20.805Z,3.53
2022-12-05T22:08:48.501Z,3.67
2022-12-05T22:11:21.903Z,3.67
2022-12-05T22:13:49.940Z,2.80
2022-12-05T22:16:18.152Z,1.70
2022-12-05T22:18:46.381Z,3.07
2022-12-05T22:21:16.578Z,4.03
2022-12-05T22:23:44.131Z,3.10
2022-12-05T22:26:17.311Z,3.27
2022-12-05T22:28:45.362Z,1.90
2022-12-05T22:31:17.395Z,2.42
2022-12-05T22:36:15.206Z,5.27
2022-12-05T22:38:45.025Z,3.10
2022-12-05T22:41:15.467Z,4.33
2022-12-05T22:43:45.024Z,2.10
2022-12-05T22:46:15.001Z,3.95
2022-12-05T22:48:42.527Z,3.55
2022-12-05T22:51:10.323Z,3.80
2022-12-05T22:53:38.628Z,1.83
2022-12-05T22:56:14.692Z,2.33
2022-12-05T22:58:43.184Z,2.17
2022-12-05T23:01:22.528Z,3.40
2022-12-05T23:03:56.871Z,2.27
2022-12-05T23:06:24.570Z,2.43
2022-12-05T23:08:52.770Z,2.83
2022-12-05T23:11:21.024Z,3.17
2022-12-05T23:13:49.452Z,3.13
2022-12-05T23:16:22.588Z,1.70
2022-12-05T23:18:50.985Z,2.97
2022-12-05T23:21:36.855Z,3.78
2022-12-05T23:24:07.846Z,2.55
2022-12-05T23:26:44.335Z,2.53
2022-12-05T23:29:12.709Z,1.63
2022-12-05T23:31:41.006Z,2.83
2022-12-05T23:34:08.975Z,5.57
2022-12-05T23:36:36.791Z,3.00
2022-12-05T23:39:05.973Z,2.20
2022-12-05T23:41:33.601Z,2.50
2022-12-05T23:44:01.045Z,2.97
2022-12-05T23:46:29.220Z,2.77
2022-12-05T23:48:58.120Z,3.03
2022-12-05T23:51:28.833Z,1.93
2022-12-05T23:53:58.830Z,2.03
2022-12-05T23:56:28.812Z,4.23
2022-12-05T23:58:57.190Z,3.97
